createdAt,value
2022-10-09T00:00:31.964Z,14.23
2022-10-09T00:02:33.817Z,15.93
2022-10-09T00:04:35.539Z,14.98
2022-10-09T00:06:37.301Z,15.95
2022-10-09T00:08:40.324Z,15.60
2022-10-09T00:10:43.369Z,19.50
2022-10-09T00:12:45.312Z,15.20
2022-10-09T00:14:47.095Z,20.85
2022-10-09T00:16:48.838Z,18.05
2022-10-09T00:18:51.826Z,18.27
2022-10-09T00:20:53.532Z,18.67
2022-10-09T00:22:55.211Z,14.52
2022-10-09T00:24:56.978Z,21.27
2022-10-09T00:26:58.692Z,14.85
2022-10-09T00:29:00.598Z,18.42
2022-10-09T00:31:05.912Z,17.70
2022-10-09T00:33:07.678Z,14.50
2022-10-09T00:35:09.541Z,12.25
2022-10-09T00:37:11.384Z,16.77
2022-10-09T00:39:13.114Z,17.23
2022-10-09T00:41:17.822Z,14.63
2022-10-09T00:43:39.643Z,15.00
2022-10-09T00:45:48.165Z,17.92
2022-10-09T00:48:11.267Z,14.35
2022-10-09T00:50:35.852Z,14.32
2022-10-09T00:52:37.760Z,16.85
2022-10-09T00:54:41.843Z,17.48
2022-10-09T00:56:44.099Z,16.10
2022-10-09T00:58:51.883Z,14.80
2022-10-09T01:00:54.016Z,16.35
2022-10-09T01:02:55.879Z,14.55
2022-10-09T01:04:57.797Z,13.40
2022-10-09T01:07:21.753Z,14.70
2022-10-09T01:09:31.015Z,13.98
2022-10-09T01:11:50.686Z,15.38
2022-10-09T01:14:04.720Z,20.27
2022-10-09T01:18:33.945Z,19.17
2022-10-09T01:20:57.198Z,12.73
2022-10-09T01:23:13.669Z,13.38
2022-10-09T01:25:25.682Z,17.23
2022-10-09T01:27:29.095Z,13.30
2022-10-09T01:29:42.607Z,12.13
2022-10-09T01:31:48.296Z,14.55
2022-10-09T01:33:50.247Z,18.20
2022-10-09T01:35:53.688Z,11.55
2022-10-09T01:37:56.662Z,16.88
2022-10-09T01:39:59.387Z,16.33
2022-10-09T01:42:02.343Z,11.63
2022-10-09T01:44:14.569Z,15.73
2022-10-09T01:46:23.298Z,14.82
2022-10-09T01:48:25.710Z,20.42
2022-10-09T01:50:33.337Z,14.45
2022-10-09T01:52:52.179Z,14.70
2022-10-09T01:55:08.567Z,19.38
2022-10-09T01:57:14.076Z,13.80
2022-10-09T01:59:18.798Z,13.43
2022-10-09T02:01:31.362Z,12.00
2022-10-09T02:03:35.438Z,13.60
2022-10-09T02:05:39.049Z,16.95
2022-10-09T02:07:41.148Z,12.63
2022-10-09T02:09:44.264Z,12.98
2022-10-09T02:11:53.053Z,13.50
2022-10-09T02:13:55.908Z,12.15
2022-10-09T02:16:40.750Z,13.77
2022-10-09T02:19:23.496Z,13.98
2022-10-09T02:21:46.844Z,10.45
2022-10-09T02:23:51.311Z,14.10
2022-10-09T02:25:53.577Z,9.70
2022-10-09T02:27:55.978Z,13.68
2022-10-09T02:29:59.592Z,8.43
2022-10-09T02:32:01.505Z,10.45
2022-10-09T02:34:08.929Z,10.95
2022-10-09T02:36:11.039Z,10.57
2022-10-09T02:38:12.892Z,13.32
2022-10-09T02:40:15.232Z,11.23
2022-10-09T02:42:17.189Z,16.95
2022-10-09T02:44:19.176Z,9.85
2022-10-09T02:46:21.641Z,11.98
2022-10-09T02:48:23.480Z,12.73
2022-10-09T02:50:25.461Z,12.02
2022-10-09T02:52:27.390Z,10.35
2022-10-09T02:54:29.093Z,16.27
2022-10-09T02:56:32.189Z,10.88
2022-10-09T02:58:36.476Z,10.93
2022-10-09T03:00:38.788Z,13.40
2022-10-09T03:02:40.831Z,13.60
2022-10-09T03:04:42.701Z,11.52
2022-10-09T03:06:44.459Z,14.38
2022-10-09T03:08:48.421Z,12.35
2022-10-09T03:10:50.223Z,12.93
2022-10-09T03:12:52.205Z,9.05
2022-10-09T03:14:54.078Z,8.75
2022-10-09T03:16:55.824Z,9.85
2022-10-09T03:18:57.871Z,11.50
2022-10-09T03:20:59.967Z,12.73
2022-10-09T03:23:01.673Z,14.95
2022-10-09T03:25:03.543Z,11.63
2022-10-09T03:27:05.422Z,15.52
2022-10-09T03:29:07.105Z,15.13
2022-10-09T03:31:13.050Z,11.18
2022-10-09T03:33:21.680Z,9.57
2022-10-09T03:35:23.371Z,10.33
2022-10-09T03:37:25.201Z,13.82
2022-10-09T03:39:26.954Z,13.85
2022-10-09T03:41:28.666Z,14.52
2022-10-09T03:43:31.005Z,10.77
2022-10-09T03:45:32.889Z,13.02
2022-10-09T03:47:34.569Z,15.52
2022-10-09T03:49:36.408Z,10.25
2022-10-09T03:51:38.236Z,14.15
2022-10-09T03:53:39.915Z,13.90
2022-10-09T03:55:42.694Z,13.13
2022-10-09T03:57:44.514Z,17.53
2022-10-09T03:59:46.196Z,13.52
2022-10-09T04:01:48.091Z,16.85
2022-10-09T04:03:50.054Z,15.65
2022-10-09T04:05:51.750Z,15.60
2022-10-09T04:07:53.606Z,16.73
2022-10-09T04:09:55.856Z,18.00
2022-10-09T04:11:57.551Z,21.52
2022-10-09T04:13:59.874Z,17.60
2022-10-09T04:16:01.852Z,19.30
2022-10-09T04:18:03.985Z,18.80
2022-10-09T04:20:06.102Z,21.23
2022-10-09T04:22:07.893Z,21.10
2022-10-09T04:24:09.583Z,16.50
2022-10-09T04:26:12.579Z,24.17
2022-10-09T04:28:14.518Z,21.42
2022-10-09T04:30:16.446Z,19.63
2022-10-09T04:32:18.186Z,19.08
2022-10-09T04:34:20.174Z,23.48
2022-10-09T04:36:22.206Z,23.70
2022-10-09T04:38:24.831Z,21.83
2022-10-09T04:40:26.646Z,21.27
2022-10-09T04:42:28.326Z,19.20
2022-10-09T04:44:30.065Z,16.67
2022-10-09T04:46:31.970Z,20.45
2022-10-09T04:48:44.904Z,21.17
2022-10-09T04:50:47.085Z,21.08
2022-10-09T04:52:49.048Z,22.30
2022-10-09T04:54:50.964Z,21.83
2022-10-09T04:56:52.704Z,23.38
2022-10-09T04:58:54.530Z,20.73
2022-10-09T05:00:56.248Z,24.35
2022-10-09T05:02:58.033Z,27.95
2022-10-09T05:04:59.854Z,20.98
2022-10-09T05:07:01.638Z,22.45
2022-10-09T05:09:03.551Z,27.48
2022-10-09T05:11:16.640Z,21.60
2022-10-09T05:13:18.351Z,19.83
2022-10-09T05:15:20.138Z,22.58
2022-10-09T05:17:23.442Z,18.83
2022-10-09T05:19:25.493Z,19.38
2022-10-09T05:21:28.523Z,22.10
2022-10-09T05:23:30.534Z,24.42
2022-10-09T05:25:32.215Z,24.27
2022-10-09T05:27:34.042Z,26.65
2022-10-09T05:29:35.919Z,18.35
2022-10-09T05:31:37.692Z,24.05
2022-10-09T05:33:39.484Z,21.88
2022-10-09T05:35:41.359Z,21.08
2022-10-09T05:37:44.962Z,20.13
2022-10-09T05:39:46.794Z,21.90
2022-10-09T05:41:48.491Z,23.33
2022-10-09T05:43:50.236Z,20.77
2022-10-09T05:45:52.381Z,23.38
2022-10-09T05:47:54.246Z,21.33
2022-10-09T05:49:55.928Z,24.83
2022-10-09T05:51:57.629Z,21.50
2022-10-09T05:54:00.227Z,26.05
2022-10-09T05:56:17.148Z,26.92
2022-10-09T05:58:18.873Z,22.80
2022-10-09T06:00:20.589Z,25.27
2022-10-09T06:02:22.340Z,18.35
2022-10-09T06:04:24.938Z,23.90
2022-10-09T06:06:29.894Z,27.52
2022-10-09T06:08:33.086Z,25.98
2022-10-09T06:10:43.295Z,22.77
2022-10-09T06:12:45.260Z,21.00
2022-10-09T06:14:46.962Z,24.23
2022-10-09T06:16:48.811Z,18.40
2022-10-09T06:18:50.713Z,25.13
2022-10-09T06:20:57.156Z,19.98
2022-10-09T06:22:58.927Z,23.35
2022-10-09T06:25:00.606Z,25.88
2022-10-09T06:27:02.303Z,21.67
2022-10-09T06:29:04.203Z,24.67
2022-10-09T06:31:07.188Z,21.88
2022-10-09T06:33:08.877Z,21.98
2022-10-09T06:35:10.638Z,25.30
2022-10-09T06:37:12.389Z,23.73
2022-10-09T06:39:14.097Z,22.98
2022-10-09T06:41:18.259Z,22.75
2022-10-09T06:43:19.964Z,20.15
2022-10-09T06:45:21.675Z,19.05
2022-10-09T06:47:23.559Z,18.55
2022-10-09T06:49:25.315Z,23.70
2022-10-09T06:51:28.127Z,20.60
2022-10-09T06:53:30.409Z,22.80
2022-10-09T06:55:32.877Z,14.10
2022-10-09T06:57:34.617Z,15.15
2022-10-09T06:59:36.332Z,19.52
2022-10-09T07:01:38.351Z,22.88
2022-10-09T07:03:42.445Z,20.85
2022-10-09T07:05:44.199Z,19.95
2022-10-09T07:07:45.918Z,19.77
2022-10-09T07:09:47.631Z,25.13
2022-10-09T07:11:49.582Z,15.00
2022-10-09T07:13:54.255Z,17.73
2022-10-09T07:15:56.010Z,17.58
2022-10-09T07:17:57.894Z,16.85
2022-10-09T07:19:59.656Z,18.13
2022-10-09T07:22:01.526Z,17.13
2022-10-09T07:24:05.632Z,19.92
2022-10-09T07:26:20.807Z,19.75
2022-10-09T07:28:23.236Z,14.07
2022-10-09T07:30:25.192Z,14.93
2022-10-09T07:32:27.073Z,13.93
2022-10-09T07:34:28.770Z,15.20
2022-10-09T07:36:30.532Z,16.83
2022-10-09T07:38:32.432Z,17.83
2022-10-09T07:40:35.355Z,21.83
2022-10-09T07:42:37.221Z,18.88
2022-10-09T07:44:39.073Z,17.48
2022-10-09T07:46:40.810Z,16.55
2022-10-09T07:48:42.896Z,15.25
2022-10-09T07:50:44.768Z,14.13
2022-10-09T07:52:46.785Z,12.05
2022-10-09T07:54:48.699Z,15.20
2022-10-09T07:56:50.876Z,10.43
2022-10-09T07:59:04.205Z,10.50
2022-10-09T08:01:07.681Z,7.93
2022-10-09T08:03:10.587Z,9.20
2022-10-09T08:05:12.285Z,10.02
2022-10-09T08:07:14.204Z,10.02
2022-10-09T08:09:18.055Z,11.02
2022-10-09T08:11:21.290Z,9.85
2022-10-09T08:13:23.382Z,11.45
2022-10-09T08:15:25.750Z,11.35
2022-10-09T08:17:27.470Z,12.60
2022-10-09T08:19:29.406Z,12.50
2022-10-09T08:21:31.609Z,8.02
2022-10-09T08:23:33.687Z,9.65
2022-10-09T08:25:36.349Z,9.50
2022-10-09T08:27:38.280Z,9.82
2022-10-09T08:29:40.441Z,10.77
2022-10-09T08:31:42.629Z,11.05
2022-10-09T08:33:44.762Z,8.85
2022-10-09T08:35:46.611Z,13.27
2022-10-09T08:37:48.417Z,13.10
2022-10-09T08:39:50.294Z,10.95
2022-10-09T08:41:54.383Z,10.52
2022-10-09T08:44:19.463Z,11.95
2022-10-09T08:46:29.474Z,10.82
2022-10-09T08:48:39.021Z,10.60
2022-10-09T08:50:47.411Z,10.57
2022-10-09T08:52:56.654Z,7.88
2022-10-09T08:55:17.502Z,12.30
2022-10-09T08:57:21.381Z,8.68
2022-10-09T08:59:23.165Z,8.60
2022-10-09T09:01:39.258Z,10.07
2022-10-09T09:03:53.456Z,9.10
2022-10-09T09:06:03.087Z,6.93
2022-10-09T09:08:13.427Z,9.07
2022-10-09T09:10:35.507Z,7.90
2022-10-09T09:12:51.095Z,11.68
2022-10-09T09:15:38.357Z,9.30
2022-10-09T09:17:44.591Z,10.23
2022-10-09T09:20:08.052Z,11.88
2022-10-09T09:22:13.538Z,9.20
2022-10-09T09:24:19.196Z,8.38
2022-10-09T09:26:22.191Z,13.10
2022-10-09T09:28:28.828Z,9.85
2022-10-09T09:30:44.287Z,8.95
2022-10-09T09:33:11.201Z,9.60
2022-10-09T09:35:21.374Z,9.10
2022-10-09T09:37:23.520Z,7.68
2022-10-09T09:42:00.724Z,10.25
2022-10-09T09:44:02.944Z,10.90
2022-10-09T09:46:14.654Z,6.80
2022-10-09T09:48:26.698Z,8.25
2022-10-09T09:50:48.562Z,9.70
2022-10-09T09:52:56.205Z,14.13
2022-10-09T09:54:59.122Z,9.13
2022-10-09T09:57:12.336Z,9.98
2022-10-09T09:59:38.811Z,11.85
2022-10-09T10:01:40.557Z,12.90
2022-10-09T10:03:49.314Z,11.73
2022-10-09T10:05:51.338Z,10.15
2022-10-09T10:07:53.643Z,9.10
2022-10-09T10:10:26.513Z,23.23
2022-10-09T10:12:29.460Z,12.45
2022-10-09T10:14:32.601Z,9.50
2022-10-09T10:16:38.900Z,8.85
2022-10-09T10:18:43.265Z,10.23
2022-10-09T10:21:09.903Z,9.57
2022-10-09T10:23:43.069Z,10.07
2022-10-09T10:25:45.261Z,11.55
2022-10-09T10:27:50.165Z,8.88
2022-10-09T10:29:56.787Z,16.48
2022-10-09T10:32:17.226Z,17.10
2022-10-09T10:34:32.613Z,11.20
2022-10-09T10:36:34.910Z,8.73
2022-10-09T10:38:45.309Z,9.55
2022-10-09T10:40:56.996Z,10.82
2022-10-09T10:42:59.401Z,8.68
2022-10-09T10:45:10.657Z,7.55
2022-10-09T10:47:21.857Z,9.68
2022-10-09T10:49:23.562Z,9.40
2022-10-09T10:51:47.753Z,9.00
2022-10-09T10:54:19.589Z,12.98
2022-10-09T10:56:35.773Z,13.45
2022-10-09T10:58:47.908Z,11.43
2022-10-09T11:01:04.489Z,9.98
2022-10-09T11:03:34.378Z,10.02
2022-10-09T11:05:47.152Z,7.40
2022-10-09T11:08:23.097Z,9.00
2022-10-09T11:10:38.795Z,9.35
2022-10-09T11:12:52.654Z,11.85
2022-10-09T11:15:27.000Z,6.80
2022-10-09T11:17:40.496Z,8.93
2022-10-09T11:20:02.773Z,7.88
2022-10-09T11:22:38.729Z,7.15
2022-10-09T11:25:02.300Z,7.20
2022-10-09T11:27:13.435Z,12.20
2022-10-09T11:29:21.821Z,6.82
2022-10-09T11:31:33.060Z,8.60
2022-10-09T11:33:59.085Z,11.02
2022-10-09T11:36:25.922Z,8.57
2022-10-09T11:38:33.376Z,8.77
2022-10-09T11:40:40.342Z,10.05
2022-10-09T11:42:42.426Z,9.52
2022-10-09T11:45:00.985Z,7.00
2022-10-09T11:47:09.422Z,12.02
2022-10-09T11:49:23.001Z,9.63
2022-10-09T11:51:30.681Z,8.05
2022-10-09T11:53:34.497Z,5.15
2022-10-09T11:55:36.533Z,10.65
2022-10-09T11:57:38.233Z,9.85
2022-10-09T11:59:40.015Z,11.13
2022-10-09T12:01:43.546Z,15.13
2022-10-09T12:03:45.367Z,7.57
2022-10-09T12:05:49.450Z,12.93
2022-10-09T12:07:51.330Z,7.20
2022-10-09T12:09:59.865Z,9.55
2022-10-09T12:12:08.547Z,10.05
2022-10-09T12:14:23.821Z,11.73
2022-10-09T12:16:51.687Z,7.05
2022-10-09T12:18:53.866Z,7.30
2022-10-09T12:20:57.871Z,11.27
2022-10-09T12:23:26.329Z,10.73
2022-10-09T12:25:45.326Z,7.13
2022-10-09T12:27:48.404Z,10.25
2022-10-09T12:30:11.738Z,6.47
2022-10-09T12:32:18.929Z,7.07
2022-10-09T12:34:23.070Z,12.77
2022-10-09T12:36:26.273Z,15.55
2022-10-09T12:38:30.079Z,10.20
2022-10-09T12:40:33.611Z,7.95
2022-10-09T12:42:35.549Z,7.43
2022-10-09T12:44:39.500Z,5.18
2022-10-09T12:46:41.293Z,6.18
2022-10-09T12:48:43.793Z,7.38
2022-10-09T12:50:45.793Z,4.95
2022-10-09T12:52:53.622Z,6.35
2022-10-09T12:54:55.718Z,7.57
2022-10-09T12:57:00.012Z,8.98
2022-10-09T12:59:03.019Z,7.60
2022-10-09T13:01:07.697Z,7.03
2022-10-09T13:03:35.192Z,9.07
2022-10-09T13:05:42.319Z,35.78
2022-10-09T13:07:53.010Z,18.38
2022-10-09T13:10:01.145Z,18.92
2022-10-09T13:12:22.988Z,9.95
2022-10-09T13:15:20.357Z,14.65
2022-10-09T13:17:37.460Z,7.20
2022-10-09T13:19:39.245Z,8.68
2022-10-09T13:21:41.282Z,8.38
2022-10-09T13:23:43.133Z,8.13
2022-10-09T13:25:45.277Z,8.23
2022-10-09T13:27:47.375Z,15.85
2022-10-09T13:29:49.631Z,9.98
2022-10-09T13:31:51.552Z,20.38
2022-10-09T13:33:53.514Z,8.20
2022-10-09T13:35:55.232Z,11.35
2022-10-09T13:37:57.068Z,14.25
2022-10-09T13:40:00.172Z,10.75
2022-10-09T13:42:03.125Z,36.70
2022-10-09T13:44:05.028Z,24.67
2022-10-09T13:46:06.845Z,26.75
2022-10-09T13:48:08.587Z,32.95
2022-10-09T13:50:13.579Z,28.38
2022-10-09T13:52:15.449Z,14.05
2022-10-09T13:54:17.512Z,12.43
2022-10-09T13:56:19.601Z,19.25
2022-10-09T13:58:22.165Z,28.48
2022-10-09T14:00:23.967Z,20.20
2022-10-09T14:02:25.837Z,26.20
2022-10-09T14:04:29.014Z,19.90
2022-10-09T14:06:33.402Z,30.00
2022-10-09T14:08:35.115Z,21.30
2022-10-09T14:10:41.772Z,14.07
2022-10-09T14:12:43.520Z,26.60
2022-10-09T14:14:45.200Z,15.90
2022-10-09T14:16:46.979Z,32.03
2022-10-09T14:18:48.841Z,13.48
2022-10-09T14:20:50.512Z,33.85
2022-10-09T14:22:52.612Z,20.20
2022-10-09T14:24:54.377Z,31.02
2022-10-09T14:26:56.061Z,24.92
2022-10-09T14:29:01.637Z,99.65
2022-10-09T14:31:07.662Z,55.80
2022-10-09T14:33:09.843Z,101.85
2022-10-09T14:35:13.102Z,18.52
2022-10-09T14:37:29.850Z,16.15
2022-10-09T14:39:36.610Z,16.17
2022-10-09T14:41:38.418Z,20.20
2022-10-09T14:43:40.220Z,19.52
2022-10-09T14:45:42.394Z,28.83
2022-10-09T14:47:44.158Z,19.55
2022-10-09T14:49:46.644Z,22.20
2022-10-09T14:51:48.396Z,24.77
2022-10-09T14:53:50.463Z,19.25
2022-10-09T14:55:52.180Z,17.85
2022-10-09T14:57:53.862Z,23.98
2022-10-09T14:59:56.172Z,26.88
2022-10-09T15:01:57.943Z,32.38
2022-10-09T15:04:00.641Z,25.35
2022-10-09T15:06:07.578Z,18.43
2022-10-09T15:08:09.365Z,21.35
2022-10-09T15:10:11.061Z,29.10
2022-10-09T15:12:13.370Z,27.45
2022-10-09T15:14:15.215Z,23.30
2022-10-09T15:16:18.407Z,28.60
2022-10-09T15:18:20.307Z,28.95
2022-10-09T15:20:22.063Z,33.97
2022-10-09T15:22:23.752Z,30.58
2022-10-09T15:24:25.586Z,19.63
2022-10-09T15:26:29.150Z,21.25
2022-10-09T15:28:30.934Z,17.60
2022-10-09T15:30:32.855Z,27.70
2022-10-09T15:32:34.714Z,20.48
2022-10-09T15:34:40.657Z,17.10
2022-10-09T15:36:43.223Z,20.35
2022-10-09T15:38:45.123Z,15.57
2022-10-09T15:40:54.899Z,18.48
2022-10-09T15:42:56.721Z,15.27
2022-10-09T15:44:58.593Z,16.70
2022-10-09T15:47:00.272Z,16.63
2022-10-09T15:49:02.104Z,15.93
2022-10-09T15:51:05.238Z,22.10
2022-10-09T15:53:06.914Z,17.10
2022-10-09T15:55:09.007Z,15.95
2022-10-09T15:57:10.958Z,16.20
2022-10-09T15:59:13.566Z,21.60
2022-10-09T16:01:16.904Z,17.08
2022-10-09T16:03:18.975Z,15.20
2022-10-09T16:05:20.674Z,25.05
2022-10-09T16:07:22.496Z,22.30
2022-10-09T16:09:24.418Z,23.48
2022-10-09T16:11:26.963Z,21.42
2022-10-09T16:13:28.955Z,28.13
2022-10-09T16:15:30.748Z,34.42
2022-10-09T16:17:32.527Z,34.13
2022-10-09T16:19:34.312Z,26.85
2022-10-09T16:21:35.997Z,40.45
2022-10-09T16:23:38.008Z,32.67
2022-10-09T16:25:40.946Z,30.85
2022-10-09T16:27:42.669Z,31.33
2022-10-09T16:29:44.511Z,24.60
2022-10-09T16:31:46.476Z,22.48
2022-10-09T16:33:48.363Z,24.23
2022-10-09T16:35:50.220Z,24.92
2022-10-09T16:37:52.778Z,24.45
2022-10-09T16:39:54.522Z,23.77
2022-10-09T16:41:56.349Z,121.93
2022-10-09T16:43:58.309Z,67.65
2022-10-09T16:46:10.059Z,75.43
2022-10-09T16:48:11.805Z,74.75
2022-10-09T16:50:13.728Z,44.80
2022-10-09T16:52:15.452Z,66.72
2022-10-09T16:54:17.205Z,39.83
2022-10-09T16:56:21.354Z,29.38
2022-10-09T16:58:23.063Z,30.33
2022-10-09T17:00:24.827Z,34.35
2022-10-09T17:02:26.701Z,23.33
2022-10-09T17:04:28.391Z,23.75
2022-10-09T17:06:30.340Z,25.75
2022-10-09T17:08:32.120Z,74.70
2022-10-09T17:10:33.929Z,58.67
2022-10-09T17:12:35.783Z,46.42
2022-10-09T17:14:37.828Z,46.22
2022-10-09T17:16:41.275Z,53.83
2022-10-09T17:18:43.300Z,60.50
2022-10-09T17:20:45.170Z,59.53
2022-10-09T17:22:47.172Z,85.95
2022-10-09T17:24:49.501Z,78.68
2022-10-09T17:26:51.405Z,108.30
2022-10-09T17:28:53.822Z,97.25
2022-10-09T17:30:55.742Z,100.03
2022-10-09T17:32:57.506Z,93.53
2022-10-09T17:34:59.545Z,96.72
2022-10-09T17:37:01.663Z,84.07
2022-10-09T17:39:05.373Z,138.27
2022-10-09T17:43:09.640Z,84.25
2022-10-09T17:45:12.124Z,85.97
2022-10-09T17:47:14.013Z,88.60
2022-10-09T17:49:17.231Z,90.85
2022-10-09T17:51:33.383Z,96.35
2022-10-09T17:53:35.351Z,150.00
2022-10-09T17:55:38.609Z,185.25
2022-10-09T17:57:40.483Z,202.88
2022-10-09T17:59:42.229Z,201.93
2022-10-09T18:01:44.095Z,183.85
2022-10-09T18:03:46.001Z,208.25
2022-10-09T18:05:49.756Z,204.07
2022-10-09T18:09:53.842Z,197.82
2022-10-09T18:11:55.562Z,403.42
2022-10-09T18:13:57.833Z,373.33
2022-10-09T18:15:59.631Z,350.95
2022-10-09T18:18:01.360Z,338.92
2022-10-09T18:20:03.380Z,368.48
2022-10-09T18:22:05.223Z,491.10
2022-10-09T18:24:07.046Z,445.88
2022-10-09T18:26:10.815Z,445.65
2022-10-09T18:30:14.827Z,434.75
2022-10-09T18:32:16.710Z,450.65
2022-10-09T18:34:18.538Z,449.98
2022-10-09T18:36:22.904Z,456.38
2022-10-09T18:38:24.753Z,473.95
2022-10-09T18:40:26.797Z,474.88
2022-10-09T18:42:28.484Z,448.40
2022-10-09T18:44:30.954Z,426.55
2022-10-09T18:46:39.613Z,441.55
2022-10-09T18:48:42.145Z,463.38
2022-10-09T18:50:44.637Z,387.98
2022-10-09T18:52:46.815Z,352.05
2022-10-09T18:54:52.408Z,372.50
2022-10-09T18:56:54.281Z,326.70
2022-10-09T18:58:56.423Z,413.98
2022-10-09T19:00:58.245Z,318.13
2022-10-09T19:03:00.030Z,324.58
2022-10-09T19:05:01.940Z,305.30
2022-10-09T19:07:03.737Z,317.50
2022-10-09T19:09:05.782Z,262.23
2022-10-09T19:11:07.624Z,256.45
2022-10-09T19:13:09.524Z,219.52
2022-10-09T19:15:12.412Z,270.23
2022-10-09T19:17:14.565Z,222.63
2022-10-09T19:19:16.441Z,222.27
2022-10-09T19:21:18.176Z,208.48
2022-10-09T19:23:20.225Z,170.90
2022-10-09T19:25:22.096Z,121.65
2022-10-09T19:27:26.553Z,107.15
2022-10-09T19:29:28.738Z,100.93
2022-10-09T19:31:30.641Z,108.72
2022-10-09T19:33:32.427Z,111.15
2022-10-09T19:35:34.355Z,101.22
2022-10-09T19:37:36.233Z,94.03
2022-10-09T19:39:37.934Z,86.70
2022-10-09T19:41:39.955Z,77.32
2022-10-09T19:43:42.610Z,98.03
2022-10-09T19:45:44.852Z,95.35
2022-10-09T19:47:50.009Z,96.63
2022-10-09T19:49:53.971Z,82.15
2022-10-09T19:51:55.893Z,74.03
2022-10-09T19:53:57.871Z,86.50
2022-10-09T19:55:59.545Z,96.82
2022-10-09T19:58:01.551Z,95.65
2022-10-09T20:00:04.806Z,81.15
2022-10-09T20:02:06.993Z,96.35
2022-10-09T20:04:10.897Z,97.40
2022-10-09T20:06:13.675Z,83.82
2022-10-09T20:08:15.492Z,78.13
2022-10-09T20:10:17.544Z,76.88
2022-10-09T20:12:19.370Z,73.28
2022-10-09T20:14:21.167Z,70.05
2022-10-09T20:16:25.970Z,73.88
2022-10-09T20:18:28.449Z,77.93
2022-10-09T20:20:31.519Z,80.45
2022-10-09T20:22:33.288Z,84.43
2022-10-09T20:24:35.052Z,80.45
2022-10-09T20:26:39.771Z,101.15
2022-10-09T20:28:47.230Z,109.15
2022-10-09T20:30:57.046Z,99.78
2022-10-09T20:32:59.490Z,110.35
2022-10-09T20:35:01.525Z,96.32
2022-10-09T20:37:03.321Z,110.28
2022-10-09T20:39:07.863Z,90.07
2022-10-09T20:41:09.767Z,85.70
2022-10-09T20:43:11.545Z,78.10
2022-10-09T20:45:13.257Z,86.55
2022-10-09T20:47:14.992Z,81.28
2022-10-09T20:49:17.003Z,107.20
2022-10-09T20:51:19.846Z,93.03
2022-10-09T20:53:21.790Z,112.83
2022-10-09T20:55:23.665Z,149.65
2022-10-09T20:57:25.415Z,117.95
2022-10-09T20:59:27.262Z,98.90
2022-10-09T21:01:29.364Z,98.63
2022-10-09T21:03:31.150Z,85.78
2022-10-09T21:05:33.200Z,81.90
2022-10-09T21:07:34.978Z,69.68
2022-10-09T21:09:37.099Z,82.30
2022-10-09T21:11:39.005Z,76.63
2022-10-09T21:13:40.798Z,78.25
2022-10-09T21:15:44.817Z,98.53
2022-10-09T21:17:46.592Z,94.32
2022-10-09T21:19:52.279Z,74.55
2022-10-09T21:21:54.054Z,72.25
2022-10-09T21:23:58.160Z,68.03
2022-10-09T21:26:00.100Z,66.28
2022-10-09T21:28:02.341Z,68.38
2022-10-09T21:30:04.600Z,74.15
2022-10-09T21:32:06.507Z,68.40
2022-10-09T21:34:08.593Z,80.72
2022-10-09T21:36:37.407Z,70.30
2022-10-09T21:38:39.615Z,81.55
2022-10-09T21:40:41.993Z,87.63
2022-10-09T21:42:43.932Z,72.50
2022-10-09T21:44:45.729Z,87.22
2022-10-09T21:46:47.471Z,67.45
2022-10-09T21:48:49.317Z,81.95
2022-10-09T21:50:51.125Z,84.63
2022-10-09T21:52:53.201Z,100.60
2022-10-09T21:54:55.095Z,74.50
2022-10-09T21:56:56.765Z,81.13
2022-10-09T21:58:58.518Z,75.13
2022-10-09T22:01:01.643Z,70.47
2022-10-09T22:03:03.715Z,72.82
2022-10-09T22:05:05.831Z,69.68
2022-10-09T22:07:07.571Z,82.93
2022-10-09T22:09:10.657Z,68.50
2022-10-09T22:11:12.685Z,71.80
2022-10-09T22:13:14.495Z,66.20
2022-10-09T22:15:16.426Z,63.25
2022-10-09T22:17:24.748Z,59.83
2022-10-09T22:19:26.496Z,80.43
2022-10-09T22:21:28.389Z,53.92
2022-10-09T22:23:30.086Z,66.60
2022-10-09T22:25:31.851Z,53.22
2022-10-09T22:27:33.648Z,53.53
2022-10-09T22:29:36.172Z,64.30
2022-10-09T22:31:37.945Z,55.95
2022-10-09T22:33:40.277Z,62.10
2022-10-09T22:35:42.015Z,46.05
2022-10-09T22:37:43.890Z,62.33
2022-10-09T22:39:45.563Z,58.35
2022-10-09T22:41:47.281Z,72.00
2022-10-09T22:43:51.755Z,71.43
2022-10-09T22:45:53.559Z,69.25
2022-10-09T22:47:55.257Z,70.97
2022-10-09T22:49:57.114Z,61.88
2022-10-09T22:51:58.850Z,66.93
2022-10-09T22:54:00.903Z,60.80
2022-10-09T22:56:13.155Z,64.15
2022-10-09T22:58:14.841Z,60.55
2022-10-09T23:00:16.614Z,62.40
2022-10-09T23:02:18.646Z,56.03
2022-10-09T23:04:21.618Z,58.58
2022-10-09T23:06:23.581Z,79.50
2022-10-09T23:08:25.302Z,57.55
2022-10-09T23:10:27.022Z,52.22
2022-10-09T23:12:28.861Z,89.30
2022-10-09T23:14:30.615Z,69.60
2022-10-09T23:16:32.706Z,63.35
2022-10-09T23:18:35.890Z,70.40
2022-10-09T23:20:37.582Z,93.93
2022-10-09T23:22:39.301Z,69.13
2022-10-09T23:24:41.173Z,65.13
2022-10-09T23:26:43.652Z,93.22
2022-10-09T23:28:50.786Z,96.85
2022-10-09T23:30:52.502Z,94.65
2022-10-09T23:32:54.213Z,64.93
2022-10-09T23:34:55.991Z,80.65
2022-10-09T23:36:57.871Z,88.28
2022-10-09T23:39:01.647Z,92.75
2022-10-09T23:41:06.408Z,73.72
2022-10-09T23:43:08.340Z,63.78
2022-10-09T23:45:10.806Z,105.95
2022-10-09T23:47:12.765Z,68.63
2022-10-09T23:49:14.517Z,52.05
2022-10-09T23:51:17.021Z,69.55
2022-10-09T23:53:19.998Z,73.53
2022-10-09T23:55:21.927Z,94.70
2022-10-09T23:57:23.651Z,97.32
2022-10-09T23:59:25.571Z,91.20
